Time;durP1;ratioP1;P1;durP2;ratioP2;P2;SDS_P1;SDS_P2;PMS_P1;PMS_P2;Temp;Humidity;BMP_temperature;BMP_pressure;BME280_temperature;BME280_humidity;BME280_pressure;Samples;Min_cycle;Max_cycle;Signal;HPM_P1;HPM_P2
2023/03/16 00:00:47;;;;;;;10.77;2.90;;;4.10;99.90;;;;;;5112735;28;20172;-53
2023/03/16 00:03:18;;;;;;;7.50;3.43;;;4.10;99.90;;;;;;5111952;28;20156;-57
2023/03/16 00:05:52;;;;;;;12.20;4.87;;;4.10;99.90;;;;;;5110169;28;20215;-54
2023/03/16 00:08:18;;;;;;;13.67;4.23;;;4.10;99.90;;;;;;5090441;28;20261;-55
2023/03/16 00:10:48;;;;;;;9.63;3.90;;;4.10;99.90;;;;;;5105215;28;20458;-59
2023/03/16 00:13:17;;;;;;;10.03;4.23;;;4.00;99.90;;;;;;5103533;28;20225;-59
2023/03/16 00:15:54;;;;;;;9.40;3.77;;;3.90;99.90;;;;;;5103455;28;20164;-58
2023/03/16 00:18:25;;;;;;;7.40;3.00;;;3.90;99.90;;;;;;5103463;28;20232;-60
2023/03/16 00:21:01;;;;;;;11.03;3.97;;;3.70;99.90;;;;;;5086866;28;20164;-59
2023/03/16 00:23:27;;;;;;;10.20;4.10;;;3.70;99.90;;;;;;5104510;28;20873;-57
2023/03/16 00:25:58;;;;;;;9.93;3.87;;;3.80;99.90;;;;;;5110189;28;20200;-59
2023/03/16 00:28:25;;;;;;;8.57;3.80;;;3.60;99.90;;;;;;5110195;28;20164;-60
2023/03/16 00:30:51;;;;;;;13.53;4.07;;;3.60;99.90;;;;;;5093802;28;20160;-59
2023/03/16 00:33:17;;;;;;;10.10;4.70;;;3.50;99.90;;;;;;5097291;28;20240;-59
2023/03/16 00:35:50;;;;;;;10.83;5.37;;;3.50;99.90;;;;;;5115138;28;20172;-56
2023/03/16 00:38:20;;;;;;;4.63;3.30;;;3.50;99.90;;;;;;5098763;28;20171;-55
2023/03/16 00:40:46;;;;;;;14.33;4.20;;;3.50;99.90;;;;;;5115637;28;20160;-56
2023/03/16 00:43:17;;;;;;;8.47;3.30;;;3.60;99.90;;;;;;5099684;28;20255;-57
2023/03/16 00:45:43;;;;;;;11.03;3.33;;;3.60;99.90;;;;;;5114755;28;20196;-58
2023/03/16 00:48:10;;;;;;;9.60;4.03;;;3.60;99.90;;;;;;5114586;28;20189;-58
2023/03/16 00:50:36;;;;;;;10.47;3.93;;;3.60;99.90;;;;;;5097581;28;20160;-58
2023/03/16 00:53:01;;;;;;;7.70;3.37;;;3.50;99.90;;;;;;5115019;28;20548;-57
2023/03/16 00:55:27;;;;;;;7.00;3.93;;;3.50;99.90;;;;;;5098543;28;20186;-59
2023/03/16 00:57:53;;;;;;;8.73;4.30;;;3.50;99.90;;;;;;5115361;28;20176;-59
2023/03/16 01:00:28;;;;;;;10.17;3.83;;;3.40;99.90;;;;;;5116360;28;20172;-54
2023/03/16 01:02:53;;;;;;;11.27;3.67;;;3.40;99.90;;;;;;5116079;28;20159;-56
2023/03/16 01:05:19;;;;;;;11.17;4.10;;;3.40;99.90;;;;;;5081803;28;20725;-59
2023/03/16 01:07:45;;;;;;;12.70;3.37;;;3.40;99.90;;;;;;5078858;28;20184;-57
2023/03/16 01:10:11;;;;;;;9.37;3.73;;;3.30;99.90;;;;;;5078425;28;20172;-55
2023/03/16 01:12:36;;;;;;;7.20;3.60;;;3.20;99.90;;;;;;5077501;28;20168;-58
2023/03/16 01:15:02;;;;;;;11.20;3.63;;;3.20;99.90;;;;;;5076815;28;20171;-57
2023/03/16 01:17:28;;;;;;;8.47;3.93;;;3.20;99.90;;;;;;5076526;28;20264;-59
2023/03/16 01:19:54;;;;;;;8.53;3.60;;;3.20;99.90;;;;;;5074901;28;20282;-58
2023/03/16 01:22:20;;;;;;;9.87;4.10;;;3.20;99.90;;;;;;5075372;28;20255;-59
2023/03/16 01:24:46;;;;;;;14.13;5.40;;;3.20;99.90;;;;;;5075074;28;20293;-59
2023/03/16 01:27:13;;;;;;;6.23;3.33;;;3.30;99.90;;;;;;5076010;28;20168;-58
2023/03/16 01:29:39;;;;;;;9.33;4.27;;;3.30;99.90;;;;;;5075994;28;20689;-60
2023/03/16 01:32:06;;;;;;;7.93;3.77;;;3.20;99.90;;;;;;5077046;28;20568;-59
2023/03/16 01:34:33;;;;;;;12.07;3.83;;;3.20;99.90;;;;;;5076935;28;20169;-60
2023/03/16 01:36:59;;;;;;;7.97;4.03;;;3.20;99.90;;;;;;5078177;28;20168;-57
2023/03/16 01:39:25;;;;;;;9.23;3.53;;;3.20;99.90;;;;;;5077960;28;20241;-57
2023/03/16 01:41:51;;;;;;;6.23;3.47;;;3.20;99.90;;;;;;5077285;28;20165;-57
2023/03/16 01:44:23;;;;;;;10.67;4.10;;;3.20;99.90;;;;;;5077224;28;20544;-60
2023/03/16 01:46:49;;;;;;;6.47;2.60;;;3.10;99.90;;;;;;5077787;28;20200;-55
2023/03/16 01:49:36;;;;;;;7.27;3.33;;;3.10;99.90;;;;;;5078005;28;20238;-58
2023/03/16 01:52:11;;;;;;;9.23;3.93;;;3.10;99.90;;;;;;5077971;28;20201;-55
2023/03/16 01:54:42;;;;;;;10.40;3.60;;;3.10;99.90;;;;;;5077859;28;20267;-61
2023/03/16 01:57:24;;;;;;;14.50;3.40;;;3.10;99.90;;;;;;5078066;28;20504;-56
2023/03/16 02:00:09;;;;;;;7.77;2.87;;;3.10;99.90;;;;;;5078839;28;20169;-54
2023/03/16 02:02:38;;;;;;;10.77;3.47;;;3.00;99.90;;;;;;5078082;28;20187;-57
2023/03/16 02:05:14;;;;;;;8.63;3.37;;;3.00;99.90;;;;;;5076940;28;20225;-57
2023/03/16 02:07:45;;;;;;;11.23;3.00;;;2.90;99.90;;;;;;5079080;28;20187;-56
2023/03/16 02:10:13;;;;;;;5.77;2.60;;;2.90;99.90;;;;;;5078352;28;20614;-56
2023/03/16 02:12:38;;;;;;;8.10;3.53;;;2.70;99.90;;;;;;5078212;28;20173;-58
2023/03/16 02:15:05;;;;;;;7.37;2.90;;;2.80;99.90;;;;;;5078061;28;20642;-57
2023/03/16 02:17:34;;;;;;;4.33;2.50;;;2.70;99.90;;;;;;5077217;28;20485;-56
2023/03/16 02:20:16;;;;;;;6.30;2.73;;;2.70;99.90;;;;;;5077488;28;20260;-56
2023/03/16 02:22:47;;;;;;;6.77;2.40;;;2.80;99.90;;;;;;5077440;28;20222;-57
2023/03/16 02:25:17;;;;;;;5.13;2.80;;;2.70;99.90;;;;;;5078140;28;20199;-57
2023/03/16 02:27:54;;;;;;;7.20;2.30;;;2.70;99.90;;;;;;5077593;28;20272;-55
2023/03/16 02:30:20;;;;;;;9.37;3.23;;;2.70;99.90;;;;;;5076854;28;20177;-58
2023/03/16 02:32:48;;;;;;;6.70;3.03;;;2.70;99.90;;;;;;5076826;28;20194;-54
2023/03/16 02:35:13;;;;;;;9.23;2.73;;;2.70;99.90;;;;;;5076004;28;20761;-55
2023/03/16 02:37:40;;;;;;;8.17;2.20;;;2.70;99.90;;;;;;5077211;28;20677;-58
2023/03/16 02:40:25;;;;;;;4.17;2.67;;;2.70;99.90;;;;;;5076742;28;20242;-54
2023/03/16 02:43:16;;;;;;;6.50;2.17;;;2.70;99.90;;;;;;5077231;28;20691;-56
2023/03/16 02:46:10;;;;;;;7.33;2.90;;;2.70;99.90;;;;;;5070460;28;20581;-56
2023/03/16 02:48:59;;;;;;;2.23;1.97;;;2.70;99.90;;;;;;5072662;28;20173;-55
2023/03/16 02:51:24;;;;;;;4.97;2.47;;;2.70;99.90;;;;;;5077722;28;20156;-54
2023/03/16 02:53:49;;;;;;;6.27;2.40;;;2.70;99.90;;;;;;5076364;28;20164;-55
2023/03/16 02:56:15;;;;;;;9.57;3.03;;;2.70;99.90;;;;;;5076504;28;20169;-55
2023/03/16 02:58:40;;;;;;;4.53;2.70;;;2.70;99.90;;;;;;5076509;28;20497;-55
2023/03/16 03:01:06;;;;;;;5.70;1.90;;;2.70;99.90;;;;;;5077112;28;20173;-57
2023/03/16 03:03:33;;;;;;;6.57;2.03;;;2.70;99.90;;;;;;5079426;28;20272;-54
2023/03/16 03:05:59;;;;;;;6.47;1.70;;;2.70;99.90;;;;;;5100576;28;20511;-55
2023/03/16 03:08:24;;;;;;;6.23;2.70;;;2.70;99.90;;;;;;5118115;28;20291;-57
2023/03/16 03:10:50;;;;;;;4.63;2.23;;;2.80;99.90;;;;;;5100687;28;20164;-54
2023/03/16 03:13:15;;;;;;;6.83;2.53;;;2.70;99.90;;;;;;5118311;28;20194;-55
2023/03/16 03:15:41;;;;;;;5.60;2.50;;;2.70;99.90;;;;;;5100219;28;20171;-57
2023/03/16 03:18:07;;;;;;;5.37;2.60;;;2.60;99.90;;;;;;5117938;28;20178;-57
2023/03/16 03:20:33;;;;;;;6.40;2.70;;;2.60;99.90;;;;;;5113586;28;20163;-56
2023/03/16 03:22:59;;;;;;;6.20;2.07;;;2.50;99.90;;;;;;5113549;28;20216;-57
2023/03/16 03:25:24;;;;;;;5.47;2.60;;;2.50;99.90;;;;;;5118143;28;20277;-54
2023/03/16 03:27:53;;;;;;;6.27;2.67;;;2.50;99.90;;;;;;5100481;28;20262;-54
2023/03/16 03:30:21;;;;;;;5.87;2.20;;;2.50;99.90;;;;;;5100772;28;20172;-54
2023/03/16 03:32:47;;;;;;;9.23;2.03;;;2.50;99.90;;;;;;5117410;28;20600;-56
2023/03/16 03:35:14;;;;;;;7.47;2.40;;;2.40;99.90;;;;;;5100625;28;20654;-54
2023/03/16 03:37:41;;;;;;;4.23;2.40;;;2.40;99.90;;;;;;5117651;28;20178;-58
2023/03/16 03:40:09;;;;;;;6.73;2.87;;;2.50;99.90;;;;;;5099669;28;20187;-56
2023/03/16 03:42:35;;;;;;;3.13;2.20;;;2.40;99.90;;;;;;5115989;28;20453;-57
2023/03/16 03:45:01;;;;;;;6.53;2.37;;;2.50;99.90;;;;;;5099813;28;20195;-53
2023/03/16 03:47:26;;;;;;;9.07;2.70;;;2.40;99.90;;;;;;5100431;28;20174;-57
2023/03/16 03:49:52;;;;;;;8.20;2.63;;;2.40;99.90;;;;;;5100200;28;20501;-58
2023/03/16 03:52:33;;;;;;;4.30;2.07;;;2.40;99.90;;;;;;5100447;28;20171;-57
2023/03/16 03:54:59;;;;;;;4.70;3.00;;;2.30;99.90;;;;;;5118187;28;20164;-58
2023/03/16 03:57:24;;;;;;;4.60;2.37;;;2.30;99.90;;;;;;5100816;28;20467;-56
2023/03/16 03:59:49;;;;;;;4.90;2.00;;;2.30;99.90;;;;;;5100315;28;20179;-59
2023/03/16 04:02:15;;;;;;;4.63;2.27;;;2.30;99.90;;;;;;5099163;28;20164;-56
2023/03/16 04:04:43;;;;;;;3.97;2.20;;;2.30;99.90;;;;;;5116670;28;20275;-57
2023/03/16 04:07:09;;;;;;;7.60;2.00;;;2.30;99.90;;;;;;5098301;28;20167;-57
2023/03/16 04:09:35;;;;;;;3.77;2.33;;;2.20;99.90;;;;;;5116191;28;20159;-59
2023/03/16 04:12:01;;;;;;;5.50;2.17;;;2.20;99.90;;;;;;5098636;28;20159;-57
2023/03/16 04:14:28;;;;;;;5.93;2.03;;;2.20;99.90;;;;;;5097726;28;20167;-55
2023/03/16 04:16:53;;;;;;;7.73;1.93;;;2.20;99.90;;;;;;5098167;28;20172;-58
2023/03/16 04:19:19;;;;;;;6.03;2.27;;;2.20;99.90;;;;;;5115840;28;20160;-58
2023/03/16 04:21:45;;;;;;;7.13;2.60;;;2.20;99.90;;;;;;5098476;28;20171;-59
2023/03/16 04:24:13;;;;;;;3.67;1.83;;;2.20;99.90;;;;;;5116276;28;20194;-56
2023/03/16 04:26:43;;;;;;;5.30;2.10;;;2.20;99.90;;;;;;5098144;28;20199;-58
2023/03/16 04:29:10;;;;;;;8.53;2.83;;;2.20;99.90;;;;;;5098803;28;20492;-57
2023/03/16 04:31:35;;;;;;;10.03;3.07;;;2.20;99.90;;;;;;5116492;28;20167;-54
2023/03/16 04:34:01;;;;;;;2.63;2.03;;;2.20;99.90;;;;;;5117715;28;20247;-51
2023/03/16 04:36:27;;;;;;;4.37;2.07;;;2.10;99.90;;;;;;5099814;28;20199;-58
2023/03/16 04:38:52;;;;;;;1.73;1.60;;;2.10;99.90;;;;;;5099627;28;20682;-58
2023/03/16 04:41:18;;;;;;;4.03;2.13;;;2.10;99.90;;;;;;5099707;28;20243;-52
2023/03/16 04:43:43;;;;;;;3.00;2.43;;;2.10;99.90;;;;;;5118000;28;20182;-58
2023/03/16 04:46:10;;;;;;;5.47;2.50;;;2.10;99.90;;;;;;5100185;28;20198;-58
2023/03/16 04:48:36;;;;;;;3.80;2.00;;;2.00;99.90;;;;;;5099895;28;20566;-56
2023/03/16 04:51:02;;;;;;;2.70;1.90;;;2.00;99.90;;;;;;5099509;28;20156;-57
2023/03/16 04:53:29;;;;;;;6.70;2.43;;;2.00;99.90;;;;;;5098885;28;20227;-55
2023/03/16 04:55:54;;;;;;;3.57;2.37;;;2.00;99.90;;;;;;5099023;28;20166;-55
2023/03/16 04:58:21;;;;;;;8.03;2.60;;;2.00;99.90;;;;;;5098563;28;20171;-56
2023/03/16 05:00:47;;;;;;;7.40;2.40;;;2.00;99.90;;;;;;5097069;28;20256;-56
2023/03/16 05:03:13;;;;;;;4.20;2.33;;;2.00;99.90;;;;;;5096607;28;20465;-58
2023/03/16 05:05:38;;;;;;;6.87;2.30;;;2.00;99.90;;;;;;5097202;28;20211;-52
2023/03/16 05:08:05;;;;;;;4.70;2.10;;;2.00;99.90;;;;;;5096531;28;20232;-54
2023/03/16 05:10:32;;;;;;;3.93;2.40;;;2.00;99.90;;;;;;5095548;28;20264;-57
2023/03/16 05:12:58;;;;;;;7.73;2.63;;;2.00;99.90;;;;;;5095906;28;20206;-58
2023/03/16 05:15:25;;;;;;;3.97;1.83;;;2.00;99.90;;;;;;5096314;28;20214;-56
2023/03/16 05:17:54;;;;;;;8.13;2.30;;;2.00;99.90;;;;;;5095691;28;20186;-53
2023/03/16 05:20:21;;;;;;;4.80;2.03;;;2.00;99.90;;;;;;5098419;28;20207;-58
2023/03/16 05:22:47;;;;;;;7.07;2.30;;;2.00;99.90;;;;;;5116180;28;20167;-58
2023/03/16 05:25:14;;;;;;;3.63;1.87;;;2.00;99.90;;;;;;5098554;28;20255;-56
2023/03/16 05:27:41;;;;;;;5.13;2.30;;;2.00;99.90;;;;;;5099239;28;20465;-55
2023/03/16 05:30:09;;;;;;;3.73;1.63;;;2.00;99.90;;;;;;5098432;28;20167;-57
2023/03/16 05:32:38;;;;;;;2.93;2.03;;;2.00;99.90;;;;;;5098504;28;20187;-58
2023/03/16 05:35:04;;;;;;;3.00;1.43;;;2.00;99.90;;;;;;5099269;28;20163;-56
2023/03/16 05:37:30;;;;;;;3.87;2.73;;;2.00;99.90;;;;;;5100487;28;20199;-60
2023/03/16 05:39:57;;;;;;;3.53;1.90;;;2.00;99.90;;;;;;5119548;28;20214;-58
2023/03/16 05:42:25;;;;;;;3.83;1.70;;;2.00;99.90;;;;;;5100542;28;20232;-56
2023/03/16 05:44:51;;;;;;;4.83;1.83;;;2.00;99.90;;;;;;5100321;28;20230;-58
2023/03/16 05:47:17;;;;;;;3.93;2.43;;;2.00;99.90;;;;;;5100382;28;20220;-58
2023/03/16 05:49:42;;;;;;;5.83;2.00;;;2.00;99.90;;;;;;5099509;28;20167;-58
2023/03/16 05:52:08;;;;;;;4.90;1.90;;;2.00;99.90;;;;;;5116236;28;20487;-58
2023/03/16 05:54:35;;;;;;;6.00;2.20;;;2.00;99.90;;;;;;5097013;28;20186;-57
2023/03/16 05:57:00;;;;;;;5.67;2.00;;;2.00;99.90;;;;;;5114225;28;20196;-57
2023/03/16 05:59:26;;;;;;;3.23;2.30;;;2.10;99.90;;;;;;5095790;28;20202;-58
2023/03/16 06:01:51;;;;;;;2.60;1.50;;;2.10;99.90;;;;;;5113491;28;20508;-57
2023/03/16 06:04:16;;;;;;;3.50;1.60;;;2.00;99.90;;;;;;5084844;28;20379;-54
2023/03/16 06:06:42;;;;;;;2.50;1.77;;;2.10;99.90;;;;;;5085487;28;20287;-59
2023/03/16 06:09:08;;;;;;;7.23;2.43;;;2.10;99.90;;;;;;5086419;28;20451;-58
2023/03/16 06:11:33;;;;;;;2.43;1.80;;;2.10;99.90;;;;;;5087372;28;20195;-57
2023/03/16 06:13:59;;;;;;;4.47;2.30;;;2.10;99.90;;;;;;5088752;28;20268;-57
2023/03/16 06:16:25;;;;;;;6.60;2.50;;;2.10;99.90;;;;;;5089091;28;20464;-54
2023/03/16 06:18:51;;;;;;;5.33;1.93;;;2.10;99.90;;;;;;5088949;28;20174;-55
2023/03/16 06:21:16;;;;;;;3.70;1.80;;;2.10;99.90;;;;;;5088069;28;20156;-56
2023/03/16 06:23:42;;;;;;;4.67;2.10;;;2.20;99.90;;;;;;5092375;28;20217;-58
2023/03/16 06:26:09;;;;;;;2.20;1.67;;;2.10;99.90;;;;;;5096811;28;20287;-57
2023/03/16 06:28:34;;;;;;;4.03;2.63;;;2.10;99.90;;;;;;5095645;28;20258;-56
2023/03/16 06:31:00;;;;;;;8.33;2.60;;;2.10;99.90;;;;;;5093696;28;20258;-57
2023/03/16 06:33:25;;;;;;;6.60;2.40;;;2.20;99.90;;;;;;5094501;28;20168;-58
2023/03/16 06:35:51;;;;;;;3.90;1.70;;;2.10;99.90;;;;;;5093415;28;20172;-58
2023/03/16 06:38:17;;;;;;;5.30;2.40;;;2.20;99.90;;;;;;5094447;28;20291;-56
2023/03/16 06:40:43;;;;;;;4.97;2.60;;;2.20;99.90;;;;;;5092779;28;20711;-55
2023/03/16 06:43:09;;;;;;;5.83;2.23;;;2.20;99.90;;;;;;5092084;28;20275;-54
2023/03/16 06:45:35;;;;;;;2.33;1.50;;;2.20;99.90;;;;;;5092203;28;20299;-55
2023/03/16 06:48:00;;;;;;;3.20;1.60;;;2.20;99.90;;;;;;5093182;28;20424;-58
2023/03/16 06:50:27;;;;;;;5.43;2.50;;;2.20;99.90;;;;;;5091756;28;20187;-58
2023/03/16 06:52:52;;;;;;;2.67;1.50;;;2.20;99.90;;;;;;5090406;28;20168;-58
2023/03/16 06:55:18;;;;;;;2.23;1.67;;;2.20;99.90;;;;;;5092862;28;20179;-60
2023/03/16 06:57:43;;;;;;;3.50;2.10;;;2.20;99.90;;;;;;5090960;28;20190;-58
2023/03/16 07:00:14;;;;;;;4.83;2.17;;;2.30;99.90;;;;;;5089539;28;20176;-58
2023/03/16 07:02:41;;;;;;;6.93;2.10;;;2.30;99.90;;;;;;5088269;28;20168;-58
2023/03/16 07:05:07;;;;;;;6.97;2.23;;;2.30;99.90;;;;;;5101392;28;20247;-58
2023/03/16 07:07:32;;;;;;;4.33;2.40;;;2.30;99.90;;;;;;5108264;28;20195;-58
2023/03/16 07:09:58;;;;;;;5.53;2.20;;;2.30;99.90;;;;;;5090911;28;20195;-58
2023/03/16 07:12:24;;;;;;;6.23;2.43;;;2.30;99.90;;;;;;5092568;28;20263;-58
2023/03/16 07:14:50;;;;;;;4.77;2.37;;;2.30;99.90;;;;;;5091563;28;20399;-58
2023/03/16 07:17:16;;;;;;;4.07;1.73;;;2.30;99.90;;;;;;5092546;28;20728;-58
2023/03/16 07:19:43;;;;;;;3.40;1.80;;;2.30;99.90;;;;;;5091211;28;20160;-58
2023/03/16 07:22:09;;;;;;;4.03;1.90;;;2.30;99.90;;;;;;5110279;28;20582;-57
2023/03/16 07:24:34;;;;;;;2.80;1.90;;;2.40;99.90;;;;;;5109407;28;20206;-57
2023/03/16 07:27:00;;;;;;;4.37;1.80;;;2.40;99.90;;;;;;5107403;28;20183;-56
2023/03/16 07:29:26;;;;;;;3.77;1.67;;;2.40;99.90;;;;;;5088946;28;20270;-58
2023/03/16 07:31:52;;;;;;;4.20;2.07;;;2.40;99.90;;;;;;5090981;28;20164;-57
2023/03/16 07:34:18;;;;;;;3.33;2.10;;;2.50;99.90;;;;;;5110517;28;20156;-56
2023/03/16 07:36:44;;;;;;;5.73;2.23;;;2.50;99.90;;;;;;5110907;28;20702;-58
2023/03/16 07:39:13;;;;;;;3.73;1.67;;;2.50;99.90;;;;;;5093223;28;20662;-55
2023/03/16 07:41:38;;;;;;;5.47;2.10;;;2.50;99.90;;;;;;5092370;28;20249;-55
2023/03/16 07:44:04;;;;;;;4.57;2.20;;;2.60;99.90;;;;;;5089524;28;20171;-56
2023/03/16 07:46:31;;;;;;;4.43;1.97;;;2.60;99.90;;;;;;5090754;28;20213;-57
2023/03/16 07:48:57;;;;;;;3.83;2.23;;;2.60;99.90;;;;;;5107641;28;20303;-58
2023/03/16 07:51:23;;;;;;;5.77;2.53;;;2.60;99.90;;;;;;5107169;28;20519;-56
2023/03/16 07:53:48;;;;;;;4.97;2.60;;;2.60;99.90;;;;;;5087487;28;20163;-57
2023/03/16 07:56:14;;;;;;;4.77;1.83;;;2.60;99.90;;;;;;5087424;28;20163;-57
2023/03/16 07:58:40;;;;;;;2.03;1.40;;;2.60;99.90;;;;;;5088605;28;20224;-57
2023/03/16 08:01:06;;;;;;;4.27;2.60;;;2.70;99.90;;;;;;5105950;28;20644;-58
2023/03/16 08:03:32;;;;;;;4.50;1.77;;;2.70;99.90;;;;;;5089133;28;20175;-57
2023/03/16 08:05:57;;;;;;;6.23;2.57;;;2.80;99.90;;;;;;5088244;28;20318;-56
2023/03/16 08:08:23;;;;;;;3.63;1.90;;;2.80;99.90;;;;;;5105739;28;20168;-58
2023/03/16 08:10:51;;;;;;;6.33;2.10;;;2.80;99.90;;;;;;5105064;28;20172;-55
2023/03/16 08:13:17;;;;;;;7.30;2.37;;;2.90;99.90;;;;;;5105346;28;20163;-55
2023/03/16 08:15:47;;;;;;;5.23;1.93;;;2.90;99.90;;;;;;5105925;28;20758;-56
2023/03/16 08:18:12;;;;;;;6.63;2.23;;;2.90;99.90;;;;;;5087524;28;20182;-58
2023/03/16 08:20:38;;;;;;;6.40;1.93;;;2.90;99.90;;;;;;5085143;28;20404;-54
2023/03/16 08:23:04;;;;;;;6.57;2.30;;;2.90;99.90;;;;;;5088023;28;20179;-55
2023/03/16 08:25:29;;;;;;;5.87;2.73;;;3.00;99.90;;;;;;5107689;28;20226;-57
2023/03/16 08:27:57;;;;;;;5.50;2.30;;;3.00;99.90;;;;;;5109320;28;20653;-58
2023/03/16 08:30:24;;;;;;;7.13;2.77;;;3.00;99.90;;;;;;5089992;28;20167;-56
2023/03/16 08:32:49;;;;;;;4.97;2.47;;;3.10;99.90;;;;;;5090997;28;20552;-58
2023/03/16 08:35:15;;;;;;;5.03;1.93;;;3.10;99.90;;;;;;5092815;28;20590;-56
2023/03/16 08:37:41;;;;;;;5.00;2.40;;;3.10;99.90;;;;;;5093731;28;20578;-55
2023/03/16 08:40:09;;;;;;;5.93;2.57;;;3.20;99.90;;;;;;5110392;28;20661;-54
2023/03/16 08:42:37;;;;;;;6.00;2.43;;;3.20;99.90;;;;;;5109268;28;20232;-58
2023/03/16 08:45:08;;;;;;;4.50;2.13;;;3.20;99.90;;;;;;5107435;28;20536;-58
2023/03/16 08:47:34;;;;;;;4.67;1.93;;;3.30;99.90;;;;;;5081410;28;20205;-55
2023/03/16 08:50:00;;;;;;;6.67;2.10;;;3.30;99.90;;;;;;5096189;28;20164;-55
2023/03/16 08:52:26;;;;;;;3.87;2.13;;;3.40;99.90;;;;;;5077487;28;20302;-54
2023/03/16 08:54:52;;;;;;;3.23;2.20;;;3.40;99.90;;;;;;5078400;28;20183;-54
2023/03/16 08:57:17;;;;;;;6.07;1.87;;;3.50;99.90;;;;;;5078027;28;20155;-55
2023/03/16 08:59:43;;;;;;;6.93;2.40;;;3.50;99.90;;;;;;5076648;28;20173;-55
2023/03/16 09:02:13;;;;;;;6.20;3.00;;;3.50;99.90;;;;;;5078643;28;20452;-57
2023/03/16 09:04:39;;;;;;;4.43;2.00;;;3.60;99.90;;;;;;5097201;28;20219;-57
2023/03/16 09:07:07;;;;;;;7.07;2.03;;;3.60;99.90;;;;;;5097615;28;20546;-57
2023/03/16 09:09:34;;;;;;;4.53;2.20;;;3.70;99.90;;;;;;5080265;28;20176;-58
2023/03/16 09:12:03;;;;;;;6.30;2.23;;;3.80;99.90;;;;;;5081805;28;20171;-57
2023/03/16 09:14:30;;;;;;;10.33;2.43;;;3.80;99.90;;;;;;5082949;28;20332;-58
2023/03/16 09:16:57;;;;;;;5.67;2.10;;;3.90;99.90;;;;;;5083329;28;20179;-58
2023/03/16 09:19:23;;;;;;;4.60;1.60;;;3.90;99.90;;;;;;5100059;28;20163;-57
2023/03/16 09:21:50;;;;;;;2.77;1.60;;;4.00;99.90;;;;;;5099695;28;20637;-58
2023/03/16 09:24:16;;;;;;;3.33;1.97;;;4.10;99.90;;;;;;5087592;28;20470;-57
2023/03/16 09:26:44;;;;;;;2.83;1.50;;;4.10;99.90;;;;;;5089974;28;20301;-58
2023/03/16 09:29:09;;;;;;;4.53;1.70;;;4.20;99.90;;;;;;5085415;28;20245;-58
2023/03/16 09:31:36;;;;;;;4.70;1.97;;;4.30;99.90;;;;;;5086369;28;20797;-57
2023/03/16 09:34:03;;;;;;;4.93;1.57;;;4.50;99.90;;;;;;5087007;28;20175;-58
2023/03/16 09:36:29;;;;;;;5.73;1.43;;;4.40;99.90;;;;;;5086111;28;20175;-58
2023/03/16 09:38:55;;;;;;;2.90;1.60;;;4.50;99.90;;;;;;5084687;28;20186;-58
2023/03/16 09:41:43;;;;;;;4.20;1.90;;;4.60;99.90;;;;;;5100429;28;20174;-58
2023/03/16 09:44:16;;;;;;;5.77;1.50;;;4.70;99.90;;;;;;5084579;28;20483;-59
2023/03/16 09:46:49;;;;;;;6.57;1.70;;;4.70;99.90;;;;;;5085597;28;20523;-57
2023/03/16 09:49:19;;;;;;;6.80;1.57;;;4.70;99.90;;;;;;5086362;28;20178;-60
2023/03/16 09:52:15;;;;;;;3.53;1.40;;;4.80;99.90;;;;;;5086403;28;20176;-59
2023/03/16 09:54:50;;;;;;;5.70;1.77;;;4.90;99.90;;;;;;5104673;28;20683;-58
2023/03/16 09:57:40;;;;;;;4.43;1.37;;;5.00;99.90;;;;;;5088650;28;20194;-59
2023/03/16 10:00:25;;;;;;;2.17;1.30;;;5.00;99.90;;;;;;5106326;28;20642;-56
2023/03/16 10:03:16;;;;;;;2.07;0.90;;;5.10;99.90;;;;;;5108089;28;20179;-59
2023/03/16 10:05:42;;;;;;;7.27;1.60;;;5.20;99.90;;;;;;5108177;28;20265;-59
2023/03/16 10:08:18;;;;;;;2.83;1.13;;;5.40;99.90;;;;;;5090715;28;20199;-59
2023/03/16 10:10:46;;;;;;;1.10;0.90;;;5.50;99.90;;;;;;5090038;28;20167;-58
2023/03/16 10:13:26;;;;;;;4.00;1.27;;;5.50;99.90;;;;;;5105343;28;20179;-58
2023/03/16 10:15:53;;;;;;;2.90;1.00;;;5.60;99.90;;;;;;5085189;28;20167;-55
2023/03/16 10:18:31;;;;;;;4.80;1.30;;;5.70;99.90;;;;;;5103119;28;20186;-58
2023/03/16 10:20:57;;;;;;;2.37;1.30;;;5.70;99.90;;;;;;5104931;28;20167;-57
2023/03/16 10:23:24;;;;;;;5.63;1.30;;;5.80;99.90;;;;;;5122043;27;20730;-59
2023/03/16 10:25:51;;;;;;;3.60;1.00;;;5.90;99.90;;;;;;5122789;27;20246;-63
2023/03/16 10:28:19;;;;;;;2.47;0.97;;;6.00;99.90;;;;;;5107009;28;20833;-63
2023/03/16 10:30:48;;;;;;;3.73;1.17;;;6.10;99.90;;;;;;5122663;27;20605;-64
2023/03/16 10:33:17;;;;;;;3.80;1.60;;;6.20;99.90;;;;;;5106587;28;20224;-63
2023/03/16 10:36:21;;;;;;;3.87;1.13;;;6.40;99.90;;;;;;5106794;28;20168;-62
2023/03/16 10:38:48;;;;;;;3.87;1.40;;;6.50;99.90;;;;;;5080319;28;20175;-63
2023/03/16 10:41:26;;;;;;;7.67;1.03;;;6.80;99.90;;;;;;5088401;28;20171;-63
2023/03/16 10:44:23;;;;;;;2.43;0.80;;;6.90;99.90;;;;;;5122102;27;20458;-64
2023/03/16 10:47:17;;;;;;;1.97;0.60;;;7.00;99.90;;;;;;5089575;28;20735;-59
2023/03/16 10:49:48;;;;;;;3.10;1.20;;;7.00;99.90;;;;;;5104552;28;20175;-59
2023/03/16 10:52:33;;;;;;;4.67;1.00;;;7.10;99.90;;;;;;5123689;27;20171;-59
2023/03/16 10:55:29;;;;;;;3.30;1.00;;;7.10;99.90;;;;;;5124897;27;20749;-59
2023/03/16 10:57:55;;;;;;;1.73;0.97;;;7.10;99.90;;;;;;5123802;27;20175;-59
2023/03/16 11:00:29;;;;;;;1.20;0.63;;;7.10;99.90;;;;;;5121131;27;20167;-60
2023/03/16 11:02:58;;;;;;;2.53;1.33;;;7.10;99.90;;;;;;5123298;27;20177;-58
2023/03/16 11:05:31;;;;;;;5.37;1.00;;;7.30;99.90;;;;;;5122564;27;20319;-60
2023/03/16 11:08:19;;;;;;;6.03;1.20;;;7.30;99.90;;;;;;5122778;27;20178;-57
2023/03/16 11:10:52;;;;;;;3.03;1.10;;;7.30;99.90;;;;;;5087968;28;20175;-58
2023/03/16 11:13:19;;;;;;;3.80;0.80;;;7.40;99.90;;;;;;5105391;28;20168;-56
2023/03/16 11:16:20;;;;;;;6.20;0.90;;;7.60;99.90;;;;;;5121904;27;20171;-59
2023/03/16 11:18:58;;;;;;;2.37;0.93;;;7.60;99.90;;;;;;5123421;27;20175;-57
2023/03/16 11:21:43;;;;;;;3.77;0.93;;;7.70;99.90;;;;;;5124882;27;20182;-58
2023/03/16 11:24:19;;;;;;;2.33;0.90;;;7.80;99.90;;;;;;5124720;27;20171;-59
2023/03/16 11:26:53;;;;;;;4.13;1.00;;;7.90;99.90;;;;;;5107131;28;20313;-56
2023/03/16 11:29:24;;;;;;;1.00;0.83;;;8.10;99.90;;;;;;5125357;27;20274;-59
2023/03/16 11:31:55;;;;;;;2.03;0.83;;;8.10;99.90;;;;;;5124151;27;20240;-59
2023/03/16 11:34:27;;;;;;;4.67;1.10;;;8.20;99.80;;;;;;5122991;27;20217;-59
2023/03/16 11:36:55;;;;;;;3.70;1.30;;;8.20;99.90;;;;;;5123436;27;20566;-59
2023/03/16 11:39:30;;;;;;;3.30;1.20;;;8.40;98.70;;;;;;5122387;27;20172;-59
2023/03/16 11:42:27;;;;;;;3.87;1.00;;;8.50;96.10;;;;;;5105830;28;20171;-59
2023/03/16 11:45:42;;;;;;;3.97;1.10;;;8.50;96.00;;;;;;5105105;28;20231;-59
2023/03/16 11:48:15;;;;;;;1.70;0.83;;;8.70;94.40;;;;;;5040364;28;20218;-57
2023/03/16 11:51:03;;;;;;;5.03;1.17;;;8.80;92.50;;;;;;5056362;28;20173;-59
2023/03/16 11:53:45;;;;;;;0.83;0.53;;;9.10;91.50;;;;;;5038577;28;20185;-58
2023/03/16 11:56:21;;;;;;;2.23;0.80;;;9.20;84.50;;;;;;5037690;28;20173;-59
2023/03/16 11:59:24;;;;;;;1.90;0.60;;;9.30;83.90;;;;;;5052447;28;20481;-60
2023/03/16 12:02:06;;;;;;;2.03;1.10;;;9.20;80.60;;;;;;5083488;28;20642;-59
2023/03/16 12:04:56;;;;;;;1.87;0.87;;;9.30;82.10;;;;;;5115661;27;20288;-57
2023/03/16 12:07:55;;;;;;;1.97;1.00;;;9.50;84.10;;;;;;5082731;28;20190;-58
2023/03/16 12:10:51;;;;;;;2.30;0.97;;;9.50;77.70;;;;;;5117939;27;20258;-55
2023/03/16 12:13:54;;;;;;;1.70;0.97;;;9.50;78.90;;;;;;5064800;28;20176;-57
2023/03/16 12:16:41;;;;;;;1.60;0.90;;;9.80;96.00;;;;;;5119258;27;20742;-58
2023/03/16 12:19:20;;;;;;;2.43;0.90;;;9.90;90.90;;;;;;5119517;27;20163;-58
2023/03/16 12:22:00;;;;;;;2.17;1.23;;;10.00;83.10;;;;;;5118096;27;20357;-58
2023/03/16 12:24:31;;;;;;;3.90;1.00;;;10.00;80.60;;;;;;5116663;27;20171;-58
2023/03/16 12:26:58;;;;;;;2.67;0.70;;;10.10;84.70;;;;;;5099791;28;20199;-55
2023/03/16 12:29:43;;;;;;;4.43;0.80;;;10.30;81.10;;;;;;5100165;28;20228;-58
2023/03/16 12:32:12;;;;;;;3.20;0.80;;;10.40;83.70;;;;;;5116109;27;20261;-58
2023/03/16 12:34:53;;;;;;;2.90;0.90;;;10.60;76.70;;;;;;5115987;27;20195;-58
2023/03/16 12:37:28;;;;;;;4.83;0.70;;;10.50;70.40;;;;;;5116735;27;20223;-59
2023/03/16 12:40:23;;;;;;;1.33;0.73;;;10.50;69.60;;;;;;5101550;28;20163;-60
2023/03/16 12:42:56;;;;;;;3.50;0.83;;;10.50;72.60;;;;;;5120059;27;20171;-59
2023/03/16 12:45:59;;;;;;;1.00;0.50;;;10.70;72.20;;;;;;5103893;28;20205;-59
2023/03/16 12:48:32;;;;;;;4.37;1.00;;;10.90;71.60;;;;;;5085622;28;20206;-59
2023/03/16 12:51:02;;;;;;;1.90;0.70;;;10.80;65.00;;;;;;5117982;27;20763;-59
2023/03/16 12:53:45;;;;;;;1.63;0.60;;;10.80;66.00;;;;;;5120670;27;20159;-58
2023/03/16 12:56:17;;;;;;;0.73;0.73;;;11.00;68.20;;;;;;5122862;27;20267;-59
2023/03/16 12:58:49;;;;;;;1.57;0.80;;;11.00;62.60;;;;;;5122378;27;20179;-59
2023/03/16 13:01:18;;;;;;;1.40;0.67;;;10.90;63.50;;;;;;5121947;27;20164;-60
2023/03/16 13:03:48;;;;;;;1.60;0.70;;;11.10;60.90;;;;;;5120709;27;20647;-57
2023/03/16 13:06:21;;;;;;;2.73;0.80;;;11.10;60.70;;;;;;5104048;28;20199;-58
2023/03/16 13:08:51;;;;;;;2.50;0.97;;;11.00;60.00;;;;;;5118258;27;20657;-56
2023/03/16 13:11:17;;;;;;;1.50;0.97;;;11.10;61.70;;;;;;5101464;28;20160;-59